Waskish, MN

4:45 AM CDT on July 30, 2014 (GMT -0500)
Waskish Municipal (KVWU) Elev 1181 ft | 48.15 °N, 94.52 °W | Change Station

Current weather conditions updated 11 minutes ago

Mostly Cloudy
Mostly Cloudy
61 °F
Feels Like 61 °F
N
0
Wind Variable Wind from North

Today is forecast to be Warmer than yesterday.

Today
High -- | Low -- °F
--% Chance of Precip.
Yesterday
High -- | Low -- °F
Precip. -- in
5:50 AM 8:56 PM
Waxing Crescent, 10% visible
Pressure 30.07 in
Visibility 10.0 miles
Clouds Mostly Cloudy 8500 ft
Dew Point 55 °F
Humidity 82%
Rainfall 0.00 in
Snow Depth Not available.
UV 0 out of 12
Pollen 6.50 out of 12
Air Quality Not available.
Flu Activity Not available.
METAR KVWU 300934Z AUTO 00000KT 10SM BKN085 16/13 A3007 RMK AO2

More Conditions Fewer Conditions

Pressure 30.07 in
Visibility 10.0 miles
Clouds Mostly Cloudy 8500 ft
Dew Point 55 °F
Humidity 82%
Rainfall 0.00 in
Snow Depth Not available.
UV 0 out of 12
Pollen 6.50 out of 12
Air Quality Not available.
Flu Activity Not available.
METAR KVWU 300934Z AUTO 00000KT 10SM BKN085 16/13 A3007 RMK AO2

More Conditions Fewer Conditions

10-Day Weather Forecast

Almanac

Astronomy

Jul. 30, 2014 Rise Set
Actual Time 5:50 AM CDT 8:56 PM CDT
Civil Twilight 5:13 AM CDT 9:33 PM CDT
Nautical Twilight 4:25 AM CDT 10:21 PM CDT
Astronomical Twilight 3:25 AM CDT 11:20 PM CDT
Moon 9:44 AM CDT 10:16 PM CDT
Length of Visible Light 16h 19m
Length of Day
15h 05m
Tomorrow will be 2m 40s shorter.
Waxing Crescent, 10% of the Moon is Illuminated
Today
Waxing Crescent
Aug 3
First Quarter
Aug 10
Full
Aug 17
Last Quarter
Aug 25
New

Today's Extremes

State Highs State Lows

Community

WunderPhotos

Upload Photos

1,739,029 photos uploaded!

WunderBlogs® & News

By Dr. Jeff Masters
Director of Meteorology, Weather Underground
By Kari Strenfel
Meteorologist, Weather Underground
By Christopher C. Burt
Weather Historian, Weather Underground
July 29, 2014
July 29, 2014
July 29, 2014

Nearby

Snow Depth

Station Depth Elevation
No new snow has been reported.

Earthquake Activity

City Distance Mag. Time & Date
No recent earthquake activity has been reported nearby.
Minimum magnitude displayed is 2.5.

Coastal Water Temperatures

Place Temperature
No Stations Reporting

Nearby Weather Stations

Station Location Temp. Dew Point Humidity Wind Precip. Elev Updated Type
Northome, MN 57.0 °F 55 °F 93% WNW  at  3.0 mph 0.00 in / hr 1440 ft 4:35 AM CDT Normal

Show More Stations Show Fewer Stations